createdAt,value
2023-02-25T00:02:47.544Z,99.90
2023-02-25T00:06:56.173Z,99.90
2023-02-25T00:11:07.224Z,99.90
2023-02-25T00:15:15.865Z,15.60
2023-02-25T00:19:27.608Z,41.10
2023-02-25T00:23:58.310Z,99.90
2023-02-25T00:28:06.532Z,1.00
2023-02-25T00:32:27.100Z,1.00
2023-02-25T00:36:35.788Z,1.00
2023-02-25T00:40:44.855Z,79.70
2023-02-25T00:44:53.455Z,1.00
2023-02-25T00:49:02.686Z,1.00
2023-02-25T00:53:11.314Z,54.60
2023-02-25T00:57:19.943Z,1.00
2023-02-25T01:01:33.754Z,1.00
2023-02-25T01:05:42.931Z,1.00
2023-02-25T01:09:51.866Z,1.00
2023-02-25T01:14:03.093Z,1.00
2023-02-25T01:18:11.897Z,99.90
2023-02-25T01:22:20.517Z,99.90
2023-02-25T01:26:31.050Z,1.00
2023-02-25T01:30:39.664Z,1.00
2023-02-25T01:34:48.199Z,1.00
2023-02-25T01:38:57.400Z,1.00
2023-02-25T01:43:07.874Z,99.90
2023-02-25T01:47:19.535Z,99.90
2023-02-25T01:51:29.535Z,28.20
2023-02-25T01:55:40.816Z,71.10
2023-02-25T01:59:51.314Z,1.00
2023-02-25T02:04:03.110Z,99.90
2023-02-25T02:08:11.922Z,91.00
2023-02-25T02:12:20.511Z,75.70
2023-02-25T02:16:55.088Z,1.00
2023-02-25T02:21:12.418Z,99.90
2023-02-25T02:25:43.476Z,99.90
2023-02-25T02:29:58.145Z,99.90
2023-02-25T02:34:27.471Z,85.60
2023-02-25T02:38:54.331Z,71.00
2023-02-25T02:43:05.963Z,99.90
2023-02-25T02:47:17.709Z,99.90
2023-02-25T02:51:37.659Z,47.40
2023-02-25T02:55:49.193Z,1.00
2023-02-25T03:00:05.388Z,1.00
2023-02-25T03:04:17.170Z,99.90
2023-02-25T03:08:29.190Z,99.90
2023-02-25T03:12:38.903Z,1.00
2023-02-25T03:17:14.120Z,1.00
2023-02-25T03:21:25.719Z,1.00
2023-02-25T03:25:56.402Z,1.00
2023-02-25T03:30:31.853Z,1.00
2023-02-25T03:34:43.492Z,1.00
2023-02-25T03:38:55.030Z,1.00
2023-02-25T03:43:09.347Z,1.00
2023-02-25T03:47:20.269Z,1.00
2023-02-25T03:51:31.858Z,1.00
2023-02-25T03:55:40.536Z,1.00
2023-02-25T03:59:49.153Z,1.00
2023-02-25T04:03:57.722Z,1.00
2023-02-25T04:08:08.948Z,1.00
2023-02-25T04:12:17.485Z,1.00
2023-02-25T04:16:26.404Z,1.00
2023-02-25T04:20:54.895Z,1.00
2023-02-25T04:25:03.756Z,1.00
2023-02-25T04:29:12.355Z,1.00
2023-02-25T04:33:21.189Z,1.00
2023-02-25T04:37:30.247Z,99.90
2023-02-25T04:41:38.965Z,1.00
2023-02-25T04:45:47.768Z,1.00
2023-02-25T04:49:56.449Z,1.00
2023-02-25T04:54:05.252Z,1.00
2023-02-25T04:58:13.780Z,1.00
2023-02-25T05:02:22.652Z,1.00
2023-02-25T05:06:31.959Z,1.00
2023-02-25T05:10:40.599Z,1.00
2023-02-25T05:14:49.320Z,1.00
2023-02-25T05:18:58.131Z,1.00
2023-02-25T05:23:26.036Z,1.00
2023-02-25T05:27:35.525Z,1.00
2023-02-25T05:31:44.417Z,15.40
2023-02-25T05:35:53.232Z,1.00
2023-02-25T05:40:02.040Z,1.00
2023-02-25T05:44:11.820Z,1.00
2023-02-25T05:48:20.388Z,1.00
2023-02-25T05:52:28.939Z,1.00
2023-02-25T05:56:37.507Z,1.00
2023-02-25T06:00:46.039Z,1.00
2023-02-25T06:04:55.654Z,1.00
2023-02-25T06:09:09.358Z,1.00
2023-02-25T06:13:17.972Z,1.00
2023-02-25T06:17:26.700Z,1.00
2023-02-25T06:21:54.927Z,1.00
2023-02-25T06:26:04.860Z,1.00
2023-02-25T06:30:14.011Z,1.00
2023-02-25T06:34:22.617Z,1.00
2023-02-25T06:38:31.973Z,1.00
2023-02-25T06:42:40.594Z,1.00
2023-02-25T06:46:51.988Z,1.00
2023-02-25T06:51:00.717Z,1.00
2023-02-25T06:55:10.295Z,1.00
2023-02-25T06:59:19.099Z,1.00
2023-02-25T07:03:28.036Z,1.00
2023-02-25T07:07:36.600Z,1.00
2023-02-25T07:11:45.394Z,1.00
2023-02-25T07:15:53.944Z,1.00
2023-02-25T07:20:02.636Z,1.00
2023-02-25T07:24:12.510Z,1.00
2023-02-25T07:28:21.041Z,1.00
2023-02-25T07:32:29.746Z,1.00
2023-02-25T07:36:38.602Z,1.00
2023-02-25T07:40:47.187Z,1.00
2023-02-25T07:44:55.749Z,1.00
2023-02-25T07:49:04.487Z,1.00
2023-02-25T07:53:13.053Z,99.90
2023-02-25T07:57:21.602Z,1.00
2023-02-25T08:01:33.074Z,1.00
2023-02-25T08:05:41.668Z,1.00
2023-02-25T08:09:50.299Z,1.00
2023-02-25T08:14:02.008Z,99.90
2023-02-25T08:18:11.436Z,99.90
2023-02-25T08:22:20.073Z,99.90
2023-02-25T08:26:29.011Z,99.90
2023-02-25T08:30:38.205Z,1.00
2023-02-25T08:34:48.816Z,1.00
2023-02-25T08:38:58.442Z,1.00
2023-02-25T08:43:07.801Z,1.00
2023-02-25T08:47:16.454Z,99.90
2023-02-25T08:51:44.438Z,99.90
2023-02-25T08:55:53.880Z,99.90
2023-02-25T09:00:22.278Z,1.00
2023-02-25T09:04:30.905Z,99.90
2023-02-25T09:08:39.566Z,99.90
2023-02-25T09:12:49.824Z,99.90
2023-02-25T09:16:58.937Z,1.00
2023-02-25T09:21:07.564Z,1.00
2023-02-25T09:25:16.208Z,1.00
2023-02-25T09:29:24.843Z,68.20
2023-02-25T09:33:35.790Z,1.00
2023-02-25T09:37:44.349Z,1.00
2023-02-25T09:41:56.108Z,1.00
2023-02-25T09:46:14.505Z,99.90
2023-02-25T09:50:26.178Z,99.90
2023-02-25T09:54:40.868Z,99.90
2023-02-25T09:58:52.566Z,1.00
2023-02-25T10:03:10.274Z,1.00
2023-02-25T10:07:24.775Z,99.90
2023-02-25T10:12:12.728Z,1.00
2023-02-25T10:16:24.654Z,1.00
2023-02-25T10:20:41.960Z,1.00
2023-02-25T10:24:53.408Z,99.90
2023-02-25T10:29:05.038Z,99.90
2023-02-25T10:33:21.321Z,99.90
2023-02-25T10:37:37.979Z,1.00
2023-02-25T10:41:46.615Z,99.90
2023-02-25T10:46:01.158Z,27.40
2023-02-25T10:50:42.968Z,47.80
2023-02-25T10:54:49.010Z,64.00
2023-02-25T10:59:09.700Z,45.40
2023-02-25T11:03:21.317Z,75.90
2023-02-25T11:07:33.074Z,1.00
2023-02-25T11:11:44.676Z,1.00
2023-02-25T11:15:53.342Z,1.00
2023-02-25T11:20:05.007Z,1.00
2023-02-25T11:24:20.057Z,1.00
2023-02-25T11:28:41.116Z,1.00
2023-02-25T11:33:25.742Z,1.00
2023-02-25T11:37:43.058Z,1.00
2023-02-25T11:42:00.375Z,1.00
2023-02-25T11:46:12.512Z,1.00
2023-02-25T11:50:46.687Z,1.00
2023-02-25T11:55:00.953Z,1.00
2023-02-25T11:59:21.536Z,1.00
2023-02-25T12:03:43.680Z,1.00
2023-02-25T12:08:16.290Z,1.00
2023-02-25T12:12:46.197Z,1.00
2023-02-25T12:17:30.167Z,1.00
2023-02-25T12:21:50.505Z,1.00
2023-02-25T12:30:50.712Z,1.00
2023-02-25T12:35:15.319Z,1.00
2023-02-25T12:39:44.847Z,1.00
2023-02-25T12:43:56.554Z,1.00
2023-02-25T12:48:13.031Z,1.00
2023-02-25T12:52:57.832Z,1.00
2023-02-25T12:57:21.828Z,1.00
2023-02-25T13:01:46.084Z,1.00
2023-02-25T13:06:07.699Z,1.00
2023-02-25T13:10:34.305Z,1.00
2023-02-25T13:15:07.201Z,1.00
2023-02-25T13:19:47.572Z,1.00
2023-02-25T13:24:01.833Z,1.00
2023-02-25T13:28:19.269Z,1.00
2023-02-25T13:32:31.148Z,1.00
2023-02-25T13:37:00.795Z,1.00
2023-02-25T13:41:39.227Z,1.00
2023-02-25T13:46:15.417Z,1.00
2023-02-25T13:50:43.685Z,1.00
2023-02-25T13:55:07.279Z,1.00
2023-02-25T13:59:44.593Z,1.00
2023-02-25T14:04:33.389Z,1.00
2023-02-25T14:09:04.594Z,1.00
2023-02-25T14:13:30.639Z,1.00
2023-02-25T14:17:56.772Z,1.00
2023-02-25T14:22:40.420Z,1.00
2023-02-25T14:27:14.856Z,1.00
2023-02-25T14:31:35.816Z,1.00
2023-02-25T14:36:02.398Z,1.00
2023-02-25T14:40:30.218Z,1.00
2023-02-25T14:44:56.544Z,1.00
2023-02-25T14:49:26.803Z,1.00
2023-02-25T14:54:02.938Z,1.00
2023-02-25T14:58:50.916Z,1.00
2023-02-25T15:03:33.105Z,1.00
2023-02-25T15:07:59.756Z,1.00
2023-02-25T15:12:11.457Z,1.00
2023-02-25T15:16:41.711Z,1.00
2023-02-25T15:20:50.772Z,99.90
2023-02-25T15:25:18.962Z,99.90
2023-02-25T15:29:52.020Z,99.90
2023-02-25T15:34:23.279Z,99.90
2023-02-25T15:38:46.376Z,99.90
2023-02-25T15:42:59.573Z,99.90
2023-02-25T15:47:21.017Z,99.90
2023-02-25T15:51:41.572Z,99.90
2023-02-25T15:56:08.684Z,99.90
2023-02-25T16:00:38.293Z,99.90
2023-02-25T16:04:50.194Z,1.00
2023-02-25T16:09:07.869Z,1.00
2023-02-25T16:13:19.447Z,1.00
2023-02-25T16:17:34.320Z,99.90
2023-02-25T16:21:47.921Z,99.90
2023-02-25T16:26:09.223Z,99.90
2023-02-25T16:30:26.711Z,99.90
2023-02-25T16:35:02.338Z,1.00
2023-02-25T16:39:16.908Z,1.00
2023-02-25T16:43:28.562Z,1.00
2023-02-25T16:47:39.725Z,1.00
2023-02-25T16:51:48.890Z,99.90
2023-02-25T16:56:01.613Z,99.90
2023-02-25T17:00:17.118Z,99.90
2023-02-25T17:04:31.256Z,99.90
2023-02-25T17:08:42.877Z,99.90
2023-02-25T17:12:51.490Z,99.90
2023-02-25T17:17:00.883Z,99.90
2023-02-25T17:21:18.166Z,99.90
2023-02-25T17:25:30.830Z,99.90
2023-02-25T17:29:39.670Z,99.90
2023-02-25T17:33:51.966Z,99.90
2023-02-25T17:38:01.022Z,99.90
2023-02-25T17:42:33.205Z,99.90
2023-02-25T17:46:44.556Z,99.90
2023-02-25T17:51:02.080Z,99.90
2023-02-25T17:55:34.690Z,99.90
2023-02-25T17:59:46.486Z,1.00
2023-02-25T18:03:55.172Z,1.00
2023-02-25T18:08:21.204Z,1.00
2023-02-25T18:12:38.244Z,1.00
2023-02-25T18:16:46.862Z,1.00
2023-02-25T18:20:58.724Z,1.00
2023-02-25T18:25:28.195Z,1.00
2023-02-25T18:29:37.061Z,1.00
2023-02-25T18:33:46.305Z,1.00
2023-02-25T18:37:56.969Z,1.00
2023-02-25T18:42:05.714Z,1.00
2023-02-25T18:46:15.683Z,1.00
2023-02-25T18:50:25.742Z,1.00
2023-02-25T18:54:53.813Z,1.00
2023-02-25T18:59:21.792Z,1.00
2023-02-25T19:03:39.137Z,1.00
2023-02-25T19:07:48.446Z,1.00
2023-02-25T19:11:57.027Z,1.00
2023-02-25T19:16:07.781Z,1.00
2023-02-25T19:20:18.500Z,1.00
2023-02-25T19:24:27.058Z,1.00
2023-02-25T19:28:35.823Z,1.00
2023-02-25T19:32:44.509Z,1.00
2023-02-25T19:36:53.140Z,1.00
2023-02-25T19:41:03.614Z,1.00
2023-02-25T19:45:14.413Z,1.00
2023-02-25T19:49:23.042Z,1.00
2023-02-25T19:53:31.683Z,1.00
2023-02-25T19:57:41.564Z,1.00
2023-02-25T20:01:50.168Z,1.00
2023-02-25T20:06:00.485Z,1.00
2023-02-25T20:10:12.162Z,1.00
2023-02-25T20:14:22.509Z,1.00
2023-02-25T20:18:31.160Z,1.00
2023-02-25T20:22:40.744Z,1.00
2023-02-25T20:26:49.522Z,1.00
2023-02-25T20:31:10.039Z,1.00
2023-02-25T20:35:21.299Z,1.00
2023-02-25T20:39:42.136Z,1.00
2023-02-25T20:43:50.868Z,1.00
2023-02-25T20:47:59.571Z,1.00
2023-02-25T20:52:08.430Z,1.00
2023-02-25T20:56:23.107Z,1.00
2023-02-25T21:00:31.829Z,1.00
2023-02-25T21:04:40.542Z,1.00
2023-02-25T21:08:49.095Z,1.00
2023-02-25T21:12:57.651Z,1.00
2023-02-25T21:17:08.174Z,1.00
2023-02-25T21:21:18.571Z,1.00
2023-02-25T21:25:46.847Z,1.00
2023-02-25T21:29:55.665Z,1.00
2023-02-25T21:34:05.845Z,1.00
2023-02-25T21:38:14.372Z,1.00
2023-02-25T21:42:22.973Z,1.00
2023-02-25T21:46:31.717Z,1.00
2023-02-25T21:50:43.431Z,1.00
2023-02-25T21:54:52.777Z,1.00
2023-02-25T21:59:05.169Z,1.00
2023-02-25T22:03:13.741Z,1.00
2023-02-25T22:07:22.351Z,1.00
2023-02-25T22:11:34.364Z,1.00
2023-02-25T22:15:46.101Z,1.00
2023-02-25T22:20:14.147Z,1.00
2023-02-25T22:24:23.698Z,1.00
2023-02-25T22:28:32.226Z,1.00
2023-02-25T22:33:00.311Z,1.00
2023-02-25T22:37:08.841Z,1.00
2023-02-25T22:41:25.884Z,1.00
2023-02-25T22:45:34.449Z,1.00
2023-02-25T22:49:43.187Z,1.00
2023-02-25T22:53:52.168Z,1.00
2023-02-25T22:58:01.873Z,1.00
2023-02-25T23:02:10.435Z,1.00
2023-02-25T23:06:22.150Z,1.00
2023-02-25T23:10:31.713Z,1.00
2023-02-25T23:14:40.895Z,1.00
2023-02-25T23:18:49.976Z,1.00
2023-02-25T23:23:01.618Z,1.00
2023-02-25T23:27:10.199Z,1.00
2023-02-25T23:31:23.755Z,1.00
2023-02-25T23:35:33.493Z,1.00
2023-02-25T23:39:42.126Z,1.00
2023-02-25T23:43:55.394Z,1.00
2023-02-25T23:48:04.022Z,1.00
2023-02-25T23:52:12.619Z,1.00
2023-02-25T23:56:21.653Z,1.00
